Terminal Aerodrome Forecast
Issued by NWS

Home | Current Version | Previous Version | Text Only | Print | Product List | Glossary On
Versions: 1 2 3 4 5 6 7 8 9 10 11 12 13 14 15 16 17 18 19 20 21
306
FTUS43 KLSX 211133
TAFSUS
TAF
KSUS 211133Z 2112/2212 00000KT 1/2SM -SHRA FG BKN003
      TEMPO 2112/2116 2SM -SHRA BR BKN025
     FM211600 03004KT 5SM BR VCSH BKN025
     FM211900 01004KT P6SM BKN025
     FM212100 01004KT P6SM BKN035
     FM220800 00000KT 3SM BR FEW200=

USA.gov is the U.S. government's official web portal to all federal, state and local government web resources and services.